createdAt,value
2022-08-28T00:00:43.611Z,7.10
2022-08-28T00:03:13.474Z,6.38
2022-08-28T00:05:43.175Z,4.28
2022-08-28T00:08:12.205Z,5.25
2022-08-28T00:10:40.587Z,3.97
2022-08-28T00:13:09.284Z,3.42
2022-08-28T00:15:37.995Z,3.92
2022-08-28T00:18:05.971Z,3.50
2022-08-28T00:20:34.768Z,4.70
2022-08-28T00:23:01.842Z,8.05
2022-08-28T00:25:30.394Z,5.82
2022-08-28T00:28:00.152Z,6.90
2022-08-28T00:30:37.315Z,10.02
2022-08-28T00:33:18.180Z,4.55
2022-08-28T00:35:46.143Z,3.45
2022-08-28T00:38:14.885Z,4.55
2022-08-28T00:40:44.605Z,6.80
2022-08-28T00:43:38.615Z,3.67
2022-08-28T00:46:12.025Z,4.00
2022-08-28T00:48:40.173Z,5.78
2022-08-28T00:51:26.439Z,6.53
2022-08-28T00:53:58.609Z,6.90
2022-08-28T00:56:27.573Z,2.92
2022-08-28T00:58:56.843Z,4.43
2022-08-28T01:01:24.644Z,4.75
2022-08-28T01:03:51.611Z,6.10
2022-08-28T01:06:20.653Z,2.97
2022-08-28T01:08:50.610Z,3.40
2022-08-28T01:11:19.566Z,4.40
2022-08-28T01:13:48.635Z,4.45
2022-08-28T01:16:17.505Z,5.40
2022-08-28T01:18:46.207Z,5.53
2022-08-28T01:21:23.804Z,7.57
2022-08-28T01:24:13.954Z,3.45
2022-08-28T01:26:42.119Z,3.90
2022-08-28T01:29:10.245Z,4.55
2022-08-28T01:31:39.439Z,4.20
2022-08-28T01:34:08.070Z,7.93
2022-08-28T01:36:35.538Z,3.95
2022-08-28T01:39:13.016Z,5.88
2022-08-28T01:41:42.214Z,5.20
2022-08-28T01:44:09.639Z,7.00
2022-08-28T01:46:36.962Z,4.78
2022-08-28T01:49:04.843Z,5.18
2022-08-28T01:51:35.087Z,4.35
2022-08-28T01:54:06.181Z,4.65
2022-08-28T01:56:34.968Z,6.95
2022-08-28T01:59:05.654Z,6.78
2022-08-28T02:01:33.499Z,3.92
2022-08-28T02:04:00.974Z,5.45
2022-08-28T02:06:27.990Z,2.95
2022-08-28T02:08:55.593Z,5.25
2022-08-28T02:11:24.289Z,4.50
2022-08-28T02:13:52.816Z,3.28
2022-08-28T02:16:21.394Z,3.13
2022-08-28T02:18:48.995Z,3.55
2022-08-28T02:21:16.142Z,5.38
2022-08-28T02:23:44.642Z,4.20
2022-08-28T02:26:12.628Z,10.40
2022-08-28T02:28:40.237Z,6.80
2022-08-28T02:31:09.365Z,5.80
2022-08-28T02:33:41.830Z,3.40
2022-08-28T02:36:11.518Z,6.95
2022-08-28T02:38:39.035Z,5.45
2022-08-28T02:41:07.052Z,5.07
2022-08-28T02:43:34.519Z,5.78
2022-08-28T02:46:01.720Z,4.60
2022-08-28T02:48:31.758Z,7.07
2022-08-28T02:51:04.140Z,4.82
2022-08-28T02:53:31.542Z,6.40
2022-08-28T02:56:00.553Z,4.90
2022-08-28T02:58:27.517Z,5.63
2022-08-28T03:00:55.534Z,8.55
2022-08-28T03:03:22.736Z,5.35
2022-08-28T03:05:49.931Z,5.97
2022-08-28T03:08:16.877Z,19.77
2022-08-28T03:10:43.890Z,6.30
2022-08-28T03:13:26.466Z,7.70
2022-08-28T03:15:55.754Z,5.22
2022-08-28T03:18:24.472Z,9.80
2022-08-28T03:20:52.940Z,8.82
2022-08-28T03:23:29.207Z,8.10
2022-08-28T03:26:06.346Z,4.85
2022-08-28T03:28:39.875Z,6.38
2022-08-28T03:31:08.806Z,6.55
2022-08-28T03:33:36.693Z,6.57
2022-08-28T03:36:04.645Z,7.93
2022-08-28T03:38:32.184Z,6.70
2022-08-28T03:40:59.469Z,4.72
2022-08-28T03:43:27.382Z,6.43
2022-08-28T03:45:59.042Z,5.55
2022-08-28T03:48:28.568Z,7.38
2022-08-28T03:50:55.817Z,8.57
2022-08-28T03:53:24.788Z,9.52
2022-08-28T03:55:52.649Z,8.60
2022-08-28T03:58:19.868Z,6.38
2022-08-28T04:00:47.415Z,5.35
2022-08-28T04:03:14.859Z,5.68
2022-08-28T04:05:43.748Z,6.15
2022-08-28T04:08:15.819Z,4.40
2022-08-28T04:10:44.288Z,9.50
2022-08-28T04:13:12.254Z,6.95
2022-08-28T04:15:39.493Z,6.18
2022-08-28T04:18:06.543Z,7.05
2022-08-28T04:20:33.768Z,8.43
2022-08-28T04:23:03.867Z,8.48
2022-08-28T04:25:31.400Z,6.47
2022-08-28T04:27:59.190Z,10.07
2022-08-28T04:30:26.185Z,11.25
2022-08-28T04:32:53.131Z,5.97
2022-08-28T04:35:20.163Z,8.15
2022-08-28T04:37:47.104Z,7.55
2022-08-28T04:40:15.990Z,5.47
2022-08-28T04:42:45.014Z,8.10
2022-08-28T04:45:12.394Z,7.93
2022-08-28T04:47:40.103Z,9.27
2022-08-28T04:50:08.218Z,7.00
2022-08-28T04:52:35.199Z,5.90
2022-08-28T04:55:02.366Z,10.43
2022-08-28T04:57:32.233Z,6.15
2022-08-28T05:00:03.723Z,5.63
2022-08-28T05:02:32.100Z,6.18
2022-08-28T05:04:59.964Z,8.23
2022-08-28T05:07:26.898Z,9.20
2022-08-28T05:09:54.660Z,5.72
2022-08-28T05:12:22.201Z,10.02
2022-08-28T05:14:49.791Z,8.65
2022-08-28T05:17:16.943Z,6.22
2022-08-28T05:19:43.911Z,5.18
2022-08-28T05:22:11.261Z,10.63
2022-08-28T05:24:40.215Z,9.05
2022-08-28T05:27:08.696Z,4.82
2022-08-28T05:29:35.991Z,7.65
2022-08-28T05:32:03.630Z,7.18
2022-08-28T05:34:31.749Z,6.68
2022-08-28T05:36:58.780Z,7.57
2022-08-28T05:39:25.789Z,7.05
2022-08-28T05:41:52.731Z,8.13
2022-08-28T05:44:20.953Z,7.32
2022-08-28T05:46:48.553Z,5.90
2022-08-28T05:49:18.220Z,6.60
2022-08-28T05:51:45.815Z,6.13
2022-08-28T05:54:13.196Z,7.20
2022-08-28T05:56:41.199Z,9.82
2022-08-28T05:59:08.896Z,7.88
2022-08-28T06:01:40.448Z,5.97
2022-08-28T06:04:10.842Z,5.80
2022-08-28T06:06:40.295Z,8.82
2022-08-28T06:09:13.591Z,7.15
2022-08-28T06:11:44.603Z,7.80
2022-08-28T06:14:16.571Z,8.02
2022-08-28T06:16:52.924Z,7.82
2022-08-28T06:19:22.869Z,10.68
2022-08-28T06:21:52.526Z,13.40
2022-08-28T06:24:19.583Z,17.08
2022-08-28T06:26:46.509Z,11.05
2022-08-28T06:29:21.099Z,7.07
2022-08-28T06:31:58.134Z,7.78
2022-08-28T06:34:25.726Z,7.05
2022-08-28T06:36:54.213Z,8.07
2022-08-28T06:39:22.298Z,5.43
2022-08-28T06:41:49.381Z,8.77
2022-08-28T06:44:19.881Z,5.43
2022-08-28T06:46:49.166Z,6.22
2022-08-28T06:49:16.690Z,6.78
2022-08-28T06:51:43.891Z,10.35
2022-08-28T06:54:11.277Z,6.55
2022-08-28T06:56:38.563Z,7.40
2022-08-28T06:59:05.626Z,9.50
2022-08-28T07:01:35.592Z,6.30
2022-08-28T07:04:06.362Z,5.65
2022-08-28T07:06:36.119Z,5.20
2022-08-28T07:09:06.219Z,10.45
2022-08-28T07:11:34.813Z,5.70
2022-08-28T07:14:02.972Z,9.75
2022-08-28T07:16:32.671Z,5.78
2022-08-28T07:19:04.380Z,12.60
2022-08-28T07:21:38.321Z,8.30
2022-08-28T07:24:06.591Z,10.80
2022-08-28T07:26:33.762Z,9.57
2022-08-28T07:29:09.991Z,6.90
2022-08-28T07:31:40.769Z,7.75
2022-08-28T07:34:09.613Z,6.97
2022-08-28T07:36:37.301Z,6.90
2022-08-28T07:39:05.435Z,10.75
2022-08-28T07:41:35.420Z,7.35
2022-08-28T07:44:21.532Z,5.50
2022-08-28T07:46:48.528Z,5.85
2022-08-28T07:49:17.200Z,6.88
2022-08-28T07:51:45.679Z,6.13
2022-08-28T07:54:17.641Z,8.20
2022-08-28T07:56:47.242Z,6.57
2022-08-28T07:59:16.954Z,9.52
2022-08-28T08:01:47.032Z,4.78
2022-08-28T08:04:16.171Z,4.40
2022-08-28T08:06:44.069Z,11.10
2022-08-28T08:09:14.288Z,5.65
2022-08-28T08:11:41.375Z,7.63
2022-08-28T08:14:08.483Z,6.53
2022-08-28T08:16:39.005Z,5.40
2022-08-28T08:19:09.787Z,4.90
2022-08-28T08:21:37.207Z,7.07
2022-08-28T08:24:04.459Z,6.85
2022-08-28T08:26:32.311Z,5.25
2022-08-28T08:29:00.951Z,6.03
2022-08-28T08:31:32.470Z,5.60
2022-08-28T08:34:02.056Z,6.38
2022-08-28T08:36:30.055Z,7.85
2022-08-28T08:38:59.267Z,7.53
2022-08-28T08:41:48.764Z,7.18
2022-08-28T08:44:33.494Z,8.45
2022-08-28T08:47:17.217Z,9.40
2022-08-28T08:49:57.202Z,7.32
2022-08-28T08:52:37.954Z,7.70
2022-08-28T08:55:28.234Z,7.63
2022-08-28T08:58:05.578Z,7.57
2022-08-28T09:00:53.485Z,8.90
2022-08-28T09:03:30.103Z,7.13
2022-08-28T09:06:04.310Z,9.18
2022-08-28T09:08:31.315Z,7.05
2022-08-28T09:11:08.186Z,8.60
2022-08-28T09:14:01.067Z,8.82
2022-08-28T09:16:33.065Z,8.00
2022-08-28T09:19:02.261Z,6.03
2022-08-28T09:21:32.560Z,8.15
2022-08-28T09:24:05.809Z,5.90
2022-08-28T09:26:33.596Z,5.95
2022-08-28T09:29:17.655Z,7.57
2022-08-28T09:31:45.128Z,7.55
2022-08-28T09:34:26.611Z,8.52
2022-08-28T09:36:55.127Z,7.03
2022-08-28T09:39:29.319Z,6.75
2022-08-28T09:42:40.062Z,8.38
2022-08-28T09:45:15.051Z,6.75
2022-08-28T09:47:51.028Z,8.35
2022-08-28T09:50:38.816Z,6.78
2022-08-28T09:53:11.798Z,7.47
2022-08-28T09:56:08.484Z,10.23
2022-08-28T09:58:46.212Z,6.53
2022-08-28T10:01:45.220Z,8.50
2022-08-28T10:04:27.389Z,6.68
2022-08-28T10:07:35.010Z,7.43
2022-08-28T10:10:29.856Z,7.45
2022-08-28T10:13:10.239Z,7.88
2022-08-28T10:16:08.949Z,6.22
2022-08-28T10:18:48.016Z,12.57
2022-08-28T10:21:39.614Z,8.90
2022-08-28T10:24:12.243Z,9.13
2022-08-28T10:26:57.332Z,6.75
2022-08-28T10:29:36.241Z,12.30
2022-08-28T10:32:40.079Z,7.43
2022-08-28T10:35:32.843Z,6.47
2022-08-28T10:38:05.787Z,8.18
2022-08-28T10:40:38.913Z,6.53
2022-08-28T10:43:12.010Z,7.00
2022-08-28T10:45:39.580Z,6.45
2022-08-28T10:48:19.877Z,8.15
2022-08-28T10:50:55.094Z,6.72
2022-08-28T10:53:30.501Z,9.18
2022-08-28T10:56:03.242Z,6.35
2022-08-28T11:01:07.000Z,10.27
2022-08-28T11:03:46.414Z,8.73
2022-08-28T11:06:22.744Z,9.80
2022-08-28T11:08:55.943Z,10.57
2022-08-28T11:11:43.092Z,11.18
2022-08-28T11:14:22.883Z,8.82
2022-08-28T11:16:50.295Z,7.25
2022-08-28T11:19:38.704Z,8.70
2022-08-28T11:22:21.509Z,10.38
2022-08-28T11:25:04.454Z,9.82
2022-08-28T11:27:37.909Z,8.07
2022-08-28T11:30:11.199Z,7.20
2022-08-28T11:32:57.170Z,7.15
2022-08-28T11:35:29.951Z,6.68
2022-08-28T11:37:58.515Z,8.25
2022-08-28T11:40:28.278Z,9.20
2022-08-28T11:43:16.927Z,7.63
2022-08-28T11:45:46.537Z,7.40
2022-08-28T11:48:23.439Z,7.97
2022-08-28T11:50:53.352Z,7.85
2022-08-28T11:53:33.735Z,8.85
2022-08-28T11:56:06.697Z,7.50
2022-08-28T11:58:57.215Z,9.20
2022-08-28T12:01:37.570Z,7.70
2022-08-28T12:04:14.324Z,9.32
2022-08-28T12:06:54.764Z,8.57
2022-08-28T12:09:43.961Z,7.72
2022-08-28T12:12:13.540Z,7.50
2022-08-28T12:14:40.851Z,7.93
2022-08-28T12:17:20.304Z,6.68
2022-08-28T12:19:59.815Z,10.15
2022-08-28T12:22:44.919Z,7.80
2022-08-28T12:25:22.210Z,6.38
2022-08-28T12:27:49.728Z,11.98
2022-08-28T12:30:28.263Z,6.82
2022-08-28T12:33:07.998Z,8.43
2022-08-28T12:35:35.455Z,9.23
2022-08-28T12:38:05.956Z,7.13
2022-08-28T12:40:56.208Z,12.18
2022-08-28T12:43:28.934Z,11.95
2022-08-28T12:46:00.891Z,7.85
2022-08-28T12:48:52.120Z,7.78
2022-08-28T12:51:26.105Z,6.88
2022-08-28T12:53:56.962Z,8.85
2022-08-28T12:56:26.248Z,6.53
2022-08-28T12:58:53.288Z,6.85
2022-08-28T13:01:32.197Z,7.57
2022-08-28T13:04:05.517Z,8.60
2022-08-28T13:06:38.818Z,6.78
2022-08-28T13:09:18.644Z,7.90
2022-08-28T13:11:51.424Z,10.48
2022-08-28T13:14:46.137Z,7.80
2022-08-28T13:17:15.409Z,6.93
2022-08-28T13:19:42.570Z,8.60
2022-08-28T13:22:34.056Z,7.43
2022-08-28T13:25:02.912Z,7.80
2022-08-28T13:27:30.107Z,7.53
2022-08-28T13:30:19.945Z,7.82
2022-08-28T13:33:02.051Z,6.10
2022-08-28T13:35:35.149Z,8.70
2022-08-28T13:38:06.076Z,9.38
2022-08-28T13:43:41.910Z,8.90
2022-08-28T13:46:08.851Z,11.50
2022-08-28T13:48:35.877Z,8.95
2022-08-28T13:51:07.593Z,7.40
2022-08-28T13:53:38.227Z,9.10
2022-08-28T13:56:05.303Z,10.02
2022-08-28T13:58:32.357Z,9.65
2022-08-28T14:00:59.915Z,9.77
2022-08-28T14:03:36.014Z,9.15
2022-08-28T14:06:11.190Z,9.93
2022-08-28T14:08:39.865Z,9.15
2022-08-28T14:11:07.386Z,12.57
2022-08-28T14:13:34.432Z,10.68
2022-08-28T14:16:05.481Z,9.48
2022-08-28T14:18:32.600Z,8.90
2022-08-28T14:20:59.608Z,11.80
2022-08-28T14:23:26.624Z,10.45
2022-08-28T14:25:53.591Z,9.32
2022-08-28T14:28:20.627Z,12.38
2022-08-28T14:30:50.919Z,10.05
2022-08-28T14:33:20.493Z,9.48
2022-08-28T14:35:49.095Z,11.00
2022-08-28T14:38:16.110Z,10.45
2022-08-28T14:40:44.515Z,10.25
2022-08-28T14:43:13.266Z,11.20
2022-08-28T14:45:45.989Z,9.77
2022-08-28T14:48:14.345Z,7.32
2022-08-28T14:50:43.212Z,11.13
2022-08-28T14:53:11.019Z,7.85
2022-08-28T14:55:43.874Z,11.35
2022-08-28T14:58:11.431Z,10.68
2022-08-28T15:00:46.093Z,8.35
2022-08-28T15:03:14.029Z,9.52
2022-08-28T15:05:41.807Z,9.25
2022-08-28T15:08:10.688Z,8.00
2022-08-28T15:10:39.146Z,12.48
2022-08-28T15:13:09.187Z,11.65
2022-08-28T15:15:41.327Z,8.15
2022-08-28T15:18:10.411Z,8.23
2022-08-28T15:20:39.660Z,10.38
2022-08-28T15:23:06.767Z,9.57
2022-08-28T15:25:33.833Z,8.45
2022-08-28T15:28:00.912Z,10.77
2022-08-28T15:30:27.920Z,11.82
2022-08-28T15:32:54.955Z,9.90
2022-08-28T15:35:21.971Z,11.02
2022-08-28T15:37:49.328Z,9.18
2022-08-28T15:40:34.901Z,9.60
2022-08-28T15:43:02.099Z,9.18
2022-08-28T15:45:29.121Z,9.68
2022-08-28T15:47:58.000Z,9.05
2022-08-28T15:50:24.968Z,10.35
2022-08-28T15:52:53.538Z,10.20
2022-08-28T15:55:20.568Z,13.85
2022-08-28T15:57:47.688Z,10.35
2022-08-28T16:00:15.382Z,8.25
2022-08-28T16:02:44.461Z,8.88
2022-08-28T16:05:11.656Z,11.35
2022-08-28T16:07:38.761Z,8.25
2022-08-28T16:10:07.676Z,9.52
2022-08-28T16:12:35.702Z,10.18
2022-08-28T16:15:02.835Z,9.40
2022-08-28T16:17:29.760Z,7.70
2022-08-28T16:19:57.401Z,8.75
2022-08-28T16:22:24.611Z,7.30
2022-08-28T16:24:51.667Z,7.68
2022-08-28T16:27:18.613Z,11.70
2022-08-28T16:29:45.898Z,11.98
2022-08-28T16:32:12.914Z,9.77
2022-08-28T16:34:40.038Z,10.38
2022-08-28T16:37:07.911Z,7.68
2022-08-28T16:39:36.169Z,9.95
2022-08-28T16:42:03.340Z,10.43
2022-08-28T16:44:30.317Z,9.30
2022-08-28T16:46:57.654Z,8.50
2022-08-28T16:49:24.763Z,11.00
2022-08-28T16:51:51.735Z,12.10
2022-08-28T16:54:19.319Z,8.93
2022-08-28T16:56:46.767Z,8.90
2022-08-28T16:59:17.454Z,7.38
2022-08-28T17:01:44.700Z,8.60
2022-08-28T17:04:12.365Z,9.07
2022-08-28T17:06:40.134Z,9.43
2022-08-28T17:09:07.271Z,7.65
2022-08-28T17:11:34.360Z,9.88
2022-08-28T17:14:01.635Z,8.43
2022-08-28T17:16:32.057Z,12.57
2022-08-28T17:18:59.840Z,7.65
2022-08-28T17:21:45.680Z,8.07
2022-08-28T17:24:13.653Z,11.18
2022-08-28T17:26:41.886Z,12.90
2022-08-28T17:29:09.413Z,7.32
2022-08-28T17:31:36.628Z,11.90
2022-08-28T17:34:05.645Z,11.73
2022-08-28T17:36:34.330Z,10.43
2022-08-28T17:39:11.666Z,7.80
2022-08-28T17:41:40.846Z,12.15
2022-08-28T17:44:08.505Z,11.95
2022-08-28T17:46:37.967Z,9.15
2022-08-28T17:49:07.004Z,11.68
2022-08-28T17:51:43.430Z,12.93
2022-08-28T17:54:18.381Z,16.58
2022-08-28T17:56:46.350Z,10.50
2022-08-28T17:59:14.540Z,14.55
2022-08-28T18:01:42.420Z,16.65
2022-08-28T18:04:09.597Z,10.98
2022-08-28T18:06:37.236Z,9.27
2022-08-28T18:09:05.793Z,10.00
2022-08-28T18:11:33.063Z,10.02
2022-08-28T18:14:00.816Z,11.90
2022-08-28T18:16:31.508Z,9.48
2022-08-28T18:19:00.038Z,12.45
2022-08-28T18:21:27.417Z,8.82
2022-08-28T18:23:54.467Z,14.30
2022-08-28T18:26:21.489Z,9.68
2022-08-28T18:28:48.755Z,13.27
2022-08-28T18:31:15.924Z,11.95
2022-08-28T18:33:42.920Z,12.40
2022-08-28T18:36:11.929Z,10.63
2022-08-28T18:38:39.695Z,11.27
2022-08-28T18:41:08.591Z,11.10
2022-08-28T18:43:36.558Z,10.93
2022-08-28T18:46:05.001Z,10.82
2022-08-28T18:48:32.335Z,11.48
2022-08-28T18:50:59.343Z,13.93
2022-08-28T18:53:27.963Z,9.70
2022-08-28T18:55:56.130Z,11.95
2022-08-28T18:58:27.468Z,11.48
2022-08-28T19:00:54.799Z,11.82
2022-08-28T19:03:22.745Z,9.50
2022-08-28T19:05:51.093Z,11.45
2022-08-28T19:08:18.088Z,11.60
2022-08-28T19:10:45.302Z,17.65
2022-08-28T19:13:12.398Z,10.80
2022-08-28T19:15:39.807Z,10.15
2022-08-28T19:18:07.546Z,11.40
2022-08-28T19:20:34.853Z,11.85
2022-08-28T19:23:01.967Z,13.27
2022-08-28T19:25:30.765Z,14.07
2022-08-28T19:27:59.758Z,9.77
2022-08-28T19:30:29.106Z,11.23
2022-08-28T19:32:56.117Z,8.82
2022-08-28T19:35:24.453Z,13.27
2022-08-28T19:37:52.790Z,13.13
2022-08-28T19:40:20.908Z,12.40
2022-08-28T19:42:50.005Z,12.38
2022-08-28T19:45:18.401Z,12.75
2022-08-28T19:47:46.912Z,9.57
2022-08-28T19:50:14.624Z,11.30
2022-08-28T19:52:43.379Z,10.52
2022-08-28T19:55:18.209Z,11.23
2022-08-28T19:57:46.886Z,10.10
2022-08-28T20:00:17.818Z,11.10
2022-08-28T20:02:46.387Z,12.93
2022-08-28T20:05:13.674Z,12.68
2022-08-28T20:07:41.182Z,14.40
2022-08-28T20:10:08.849Z,10.07
2022-08-28T20:12:38.548Z,12.10
2022-08-28T20:15:08.775Z,11.05
2022-08-28T20:17:43.605Z,11.27
2022-08-28T20:20:11.785Z,13.57
2022-08-28T20:22:39.475Z,11.27
2022-08-28T20:25:08.448Z,14.38
2022-08-28T20:27:36.233Z,10.63
2022-08-28T20:30:10.815Z,14.25
2022-08-28T20:32:40.136Z,12.45
2022-08-28T20:35:09.504Z,10.55
2022-08-28T20:37:44.667Z,13.65
2022-08-28T20:40:15.944Z,11.20
2022-08-28T20:42:43.765Z,9.85
2022-08-28T20:45:12.940Z,10.82
2022-08-28T20:47:39.883Z,12.60
2022-08-28T20:50:07.873Z,14.13
2022-08-28T20:52:35.025Z,10.75
2022-08-28T20:55:02.605Z,10.30
2022-08-28T20:57:29.638Z,9.43
2022-08-28T20:59:56.691Z,9.63
2022-08-28T21:02:27.267Z,9.73
2022-08-28T21:04:55.333Z,13.60
2022-08-28T21:07:25.237Z,12.57
2022-08-28T21:10:05.204Z,13.68
2022-08-28T21:12:36.344Z,9.38
2022-08-28T21:15:05.076Z,11.63
2022-08-28T21:17:32.139Z,10.75
2022-08-28T21:20:05.600Z,11.23
2022-08-28T21:22:35.164Z,12.05
2022-08-28T21:25:03.829Z,18.20
2022-08-28T21:27:30.774Z,10.98
2022-08-28T21:29:59.200Z,10.57
2022-08-28T21:32:27.376Z,10.70
2022-08-28T21:34:55.217Z,12.35
2022-08-28T21:37:23.098Z,14.18
2022-08-28T21:39:50.799Z,12.50
2022-08-28T21:42:18.064Z,13.05
2022-08-28T21:44:51.528Z,11.27
2022-08-28T21:47:23.920Z,13.27
2022-08-28T21:49:53.254Z,15.32
2022-08-28T21:52:21.980Z,14.93
2022-08-28T21:54:49.546Z,13.88
2022-08-28T21:57:17.672Z,14.45
2022-08-28T21:59:44.679Z,16.73
2022-08-28T22:02:11.725Z,14.15
2022-08-28T22:04:38.801Z,18.00
2022-08-28T22:07:06.572Z,18.88
2022-08-28T22:09:33.528Z,14.35
2022-08-28T22:12:00.648Z,13.05
2022-08-28T22:14:28.536Z,16.92
2022-08-28T22:16:55.737Z,16.88
2022-08-28T22:19:22.918Z,14.55
2022-08-28T22:22:09.011Z,15.70
2022-08-28T22:24:36.636Z,14.00
2022-08-28T22:27:05.050Z,15.88
2022-08-28T22:29:36.461Z,15.55
2022-08-28T22:32:05.440Z,13.65
2022-08-28T22:34:42.069Z,17.88
2022-08-28T22:37:11.598Z,13.82
2022-08-28T22:39:39.751Z,14.18
2022-08-28T22:42:07.155Z,12.68
2022-08-28T22:44:34.496Z,16.45
2022-08-28T22:47:01.453Z,13.63
2022-08-28T22:49:28.420Z,14.85
2022-08-28T22:51:55.390Z,14.00
2022-08-28T22:54:22.373Z,13.50
2022-08-28T22:56:49.351Z,13.40
2022-08-28T22:59:17.175Z,16.50
2022-08-28T23:01:44.271Z,16.35
2022-08-28T23:04:11.996Z,12.25
2022-08-28T23:06:40.343Z,13.07
2022-08-28T23:09:08.375Z,15.27
2022-08-28T23:11:36.491Z,16.38
2022-08-28T23:14:05.088Z,13.57
2022-08-28T23:16:32.463Z,15.05
2022-08-28T23:19:09.633Z,18.33
2022-08-28T23:21:43.783Z,11.77
2022-08-28T23:24:12.576Z,11.98
2022-08-28T23:26:39.640Z,12.70
2022-08-28T23:29:06.643Z,10.25
2022-08-28T23:31:33.743Z,9.65
2022-08-28T23:34:00.714Z,11.65
2022-08-28T23:36:27.781Z,10.60
2022-08-28T23:38:54.779Z,11.10
2022-08-28T23:41:22.101Z,9.98
2022-08-28T23:43:49.064Z,10.10
2022-08-28T23:46:17.961Z,11.20
2022-08-28T23:48:45.306Z,9.48
2022-08-28T23:51:17.008Z,12.68
2022-08-28T23:53:44.268Z,10.02
2022-08-28T23:56:11.515Z,11.77
2022-08-28T23:58:43.253Z,9.95
